| time (UTC) | temp F | wind direction | speed MPH | gust MPH | rain 1hr in | rain 24hr in | rain mn in | humidity % | barometer mb |
| 20260510065022 | 64 | 305 | 3.0 | 6.0 | 0.00 | 0.00 | 0.00 | 57 | 1014.4 |
| 20260510064024 | 64 | 285 | 4.0 | 7.0 | 0.00 | 0.00 | 0.00 | 57 | 1014.4 |
| 20260510063022 | 64 | 287 | 3.0 | 7.0 | 0.00 | 0.00 | 0.00 | 57 | 1014.4 |
| 20260510062021 | 64 | 287 | 4.0 | 7.0 | 0.00 | 0.00 | 0.00 | 56 | 1014.4 |
| 20260510061022 | 64 | 264 | 5.0 | 10.0 | 0.00 | 0.00 | 0.00 | 56 | 1014.4 |
| 20260510060023 | 64 | 283 | 4.0 | 7.0 | 0.00 | 0.00 | 0.00 | 55 | 1014.5 |
| 20260510055022 | 64 | 270 | 5.0 | 8.0 | 0.00 | 0.00 | 0.00 | 55 | 1014.4 |
| 20260510054021 | 64 | 269 | 3.0 | 9.0 | 0.00 | 0.00 | 0.00 | 55 | 1014.4 |
| 20260510053022 | 65 | 284 | 4.0 | 7.0 | 0.00 | 0.00 | 0.00 | 54 | 1014.2 |
| 20260510052023 | 65 | 263 | 4.0 | 8.0 | 0.00 | 0.00 | 0.00 | 55 | 1014.4 |
| 20260510051022 | 65 | 257 | 5.0 | 9.0 | 0.00 | 0.00 | 0.00 | 53 | 1014.4 |
| 20260510050021 | 64 | 290 | 4.0 | 7.0 | 0.00 | 0.00 | 0.00 | 56 | 1014.3 |
| 20260510045022 | 64 | 289 | 4.0 | 6.0 | 0.00 | 0.00 | 0.00 | 55 | 1014.3 |
| 20260510044021 | 64 | 284 | 4.0 | 6.0 | 0.00 | 0.00 | 0.00 | 56 | 1014.4 |
| 20260510043021 | 64 | 266 | 4.0 | 6.0 | 0.00 | 0.00 | 0.00 | 57 | 1014.3 |
| 20260510042022 | 64 | 293 | 3.0 | 7.0 | 0.00 | 0.00 | 0.00 | 57 | 1014.4 |
| 20260510041021 | 65 | 277 | 4.0 | 6.0 | 0.00 | 0.00 | 0.00 | 58 | 1014.3 |
| 20260510040021 | 65 | 282 | 4.0 | 6.0 | 0.00 | 0.00 | 0.00 | 58 | 1014.3 |
| 20260510035022 | 65 | 287 | 4.0 | 6.0 | 0.00 | 0.00 | 0.00 | 58 | 1014.3 |
| 20260510034021 | 66 | 286 | 4.0 | 9.0 | 0.00 | 0.00 | 0.00 | 60 | 1014.3 |
| 20260510033026 | 66 | 277 | 3.0 | 5.0 | 0.00 | 0.00 | 0.00 | 59 | 1014.3 |
| 20260510032022 | 66 | 278 | 3.0 | 7.0 | 0.00 | 0.00 | 0.00 | 65 | 1014.3 |
| 20260510031021 | 66 | 241 | 2.0 | 4.0 | 0.00 | 0.00 | 0.00 | 66 | 1014.2 |
| 20260510030022 | 65 | 239 | 0.0 | 5.0 | 0.00 | 0.00 | 0.00 | 67 | 1014.1 |
| 20260510025021 | 66 | 136 | 1.0 | 4.0 | 0.00 | 0.00 | 0.00 | 66 | 1014.1 |
| 20260510024022 | 66 | 85 | 2.0 | 7.0 | 0.00 | 0.00 | 0.00 | 66 | 1013.9 |
| 20260510023021 | 66 | 37 | 2.0 | 6.0 | 0.00 | 0.00 | 0.00 | 65 | 1013.9 |
| 20260510022021 | 66 | 93 | 1.0 | 4.0 | 0.00 | 0.00 | 0.00 | 64 | 1013.6 |
| 20260510021022 | 66 | 9 | 2.0 | 5.0 | 0.00 | 0.00 | 0.00 | 64 | 1013.5 |
| 20260510020021 | 66 | 136 | 1.0 | 4.0 | 0.00 | 0.00 | 0.00 | 64 | 1013.4 |
| 20260510015022 | 67 | 42 | 1.0 | 5.0 | 0.00 | 0.00 | 0.00 | 63 | 1013.3 |
| 20260510014021 | 66 | 59 | 2.0 | 4.0 | 0.00 | 0.00 | 0.00 | 63 | 1013.1 |
| 20260510013022 | 67 | 62 | 3.0 | 5.0 | 0.00 | 0.00 | 0.00 | 63 | 1013.0 |
| 20260510012021 | 67 | 84 | 3.0 | 6.0 | 0.00 | 0.00 | 0.00 | 63 | 1012.9 |
| 20260510011022 | 67 | 73 | 3.0 | 4.0 | 0.00 | 0.00 | 0.00 | 63 | 1012.8 |
| 20260510010021 | 67 | 62 | 2.0 | 7.0 | 0.00 | 0.00 | 0.00 | 63 | 1012.7 |
| 20260510005022 | 67 | 49 | 4.0 | 6.0 | 0.00 | 0.00 | 0.00 | 63 | 1012.5 |
| 20260510004022 | 67 | 43 | 1.0 | 7.0 | 0.00 | 0.00 | 0.00 | 63 | 1012.3 |
| 20260510003021 | 66 | 91 | 3.0 | 7.0 | 0.00 | 0.00 | 0.00 | 64 | 1012.3 |
| 20260510002022 | 66 | 80 | 3.0 | 5.0 | 0.00 | 0.00 | 0.00 | 65 | 1012.2 |
| 20260510001022 | 66 | 79 | 3.0 | 7.0 | 0.00 | 0.00 | 0.00 | 64 | 1012.1 |
| 20260510000021 | 67 | 60 | 2.0 | 5.0 | 0.00 | 0.00 | 0.00 | 64 | 1011.9 |
| 20260509235022 | 67 | 88 | 3.0 | 6.0 | 0.00 | 0.00 | 0.00 | 64 | 1011.9 |
| 20260509234021 | 67 | 69 | 1.0 | 5.0 | 0.00 | 0.00 | 0.00 | 64 | 1011.9 |
| 20260509233022 | 67 | 99 | 2.0 | 5.0 | 0.00 | 0.00 | 0.00 | 63 | 1011.8 |
| 20260509232022 | 68 | 61 | 2.0 | 4.0 | 0.00 | 0.00 | 0.00 | 62 | 1011.9 |
| 20260509231024 | 68 | 87 | 3.0 | 7.0 | 0.00 | 0.00 | 0.00 | 62 | 1011.9 |
| 20260509230024 | 69 | 103 | 2.0 | 5.0 | 0.00 | 0.00 | 0.00 | 61 | 1011.8 |
| 20260509225021 | 71 | 128 | 1.0 | 5.0 | 0.00 | 0.00 | 0.00 | 57 | 1011.8 |
| 20260509224021 | 71 | 104 | 2.0 | 6.0 | 0.00 | 0.00 | 0.00 | 58 | 1011.9 |
| 20260509223022 | 72 | 107 | 2.0 | 7.0 | 0.00 | 0.00 | 0.00 | 56 | 1011.9 |
| 20260509222022 | 73 | 111 | 1.0 | 4.0 | 0.00 | 0.00 | 0.00 | 56 | 1011.9 |
| 20260509221022 | 73 | 314 | 2.0 | 4.0 | 0.00 | 0.00 | 0.00 | 55 | 1011.8 |
| 20260509220021 | 73 | 73 | 3.0 | 7.0 | 0.00 | 0.00 | 0.00 | 55 | 1011.8 |
| 20260509215021 | 74 | 157 | 1.0 | 5.0 | 0.00 | 0.00 | 0.00 | 54 | 1011.8 |
| 20260509214022 | 74 | 180 | 1.0 | 7.0 | 0.00 | 0.00 | 0.00 | 54 | 1011.7 |
| 20260509213021 | 69 | 148 | 0.0 | 4.0 | 0.00 | 0.00 | 0.00 | 61 | 1011.8 |
| 20260509212021 | 69 | 61 | 3.0 | 4.0 | 0.00 | 0.00 | 0.00 | 59 | 1011.7 |
| 20260509211023 | 69 | 307 | 1.0 | 4.0 | 0.00 | 0.00 | 0.00 | 59 | 1011.7 |
| 20260509210022 | 69 | 65 | 5.0 | 11.0 | 0.00 | 0.00 | 0.00 | 60 | 1011.7 |
| 20260509205021 | 70 | 81 | 4.0 | 7.0 | 0.00 | 0.00 | 0.00 | 58 | 1011.4 |
| 20260509204021 | 70 | 133 | 0.0 | 7.0 | 0.00 | 0.00 | 0.00 | 60 | 1011.4 |
| 20260509203022 | 69 | 148 | 1.0 | 7.0 | 0.00 | 0.00 | 0.00 | 59 | 1011.4 |
| 20260509202023 | 71 | 168 | 1.0 | 6.0 | 0.00 | 0.00 | 0.00 | 57 | 1011.3 |
| 20260509201022 | 70 | 93 | 3.0 | 7.0 | 0.00 | 0.00 | 0.00 | 58 | 1011.3 |
| 20260509200021 | 73 | 274 | 2.0 | 4.0 | 0.00 | 0.00 | 0.00 | 56 | 1011.4 |
| 20260509195023 | 72 | 340 | 3.0 | 7.0 | 0.00 | 0.00 | 0.00 | 55 | 1011.6 |
| 20260509194022 | 73 | 148 | 3.0 | 9.0 | 0.00 | 0.00 | 0.00 | 55 | 1011.7 |
| 20260509193022 | 72 | 355 | 2.0 | 6.0 | 0.00 | 0.00 | 0.00 | 54 | 1011.8 |
| 20260509192021 | 70 | 356 | 1.0 | 6.0 | 0.00 | 0.00 | 0.00 | 59 | 1011.8 |
| 20260509191022 | 72 | 220 | 1.0 | 6.0 | 0.00 | 0.00 | 0.00 | 56 | 1012.0 |
| 20260509190022 | 72 | 107 | 3.0 | 13.0 | 0.00 | 0.00 | 0.00 | 53 | 1012.1 |
| 20260509185024 | 72 | 284 | 3.0 | 7.0 | 0.00 | 0.00 | 0.00 | 56 | 1012.2 |
| 20260509184022 | 74 | 98 | 2.0 | 4.0 | 0.00 | 0.00 | 0.00 | 54 | 1012.3 |
| 20260509183021 | 72 | 200 | 3.0 | 7.0 | 0.00 | 0.00 | 0.00 | 55 | 1012.5 |
| 20260509182022 | 71 | 241 | 3.0 | 11.0 | 0.00 | 0.00 | 0.00 | 55 | 1012.7 |
| 20260509181021 | 71 | 308 | 5.0 | 10.0 | 0.00 | 0.00 | 0.00 | 57 | 1012.9 |
| 20260509180024 | 72 | 257 | 1.0 | 5.0 | 0.00 | 0.00 | 0.00 | 60 | 1013.0 |
| 20260509175022 | 72 | 9 | 4.0 | 7.0 | 0.00 | 0.00 | 0.00 | 61 | 1013.1 |
| 20260509174021 | 69 | 282 | 4.0 | 8.0 | 0.00 | 0.00 | 0.00 | 61 | 1013.2 |
| 20260509173022 | 70 | 305 | 3.0 | 9.0 | 0.00 | 0.00 | 0.00 | 61 | 1013.3 |
| 20260509172021 | 71 | 298 | 1.0 | 10.0 | 0.00 | 0.00 | 0.00 | 61 | 1013.3 |
| 20260509171022 | 69 | 114 | 3.0 | 7.0 | 0.00 | 0.00 | 0.00 | 66 | 1013.5 |
| 20260509170021 | 66 | 131 | 2.0 | 8.0 | 0.00 | 0.00 | 0.00 | 69 | 1013.5 |
| 20260509165024 | 65 | 30 | 3.0 | 7.0 | 0.00 | 0.00 | 0.00 | 70 | 1013.4 |
| 20260509164021 | 65 | 88 | 4.0 | 8.0 | 0.00 | 0.00 | 0.00 | 70 | 1013.6 |
| 20260509163021 | 66 | 84 | 3.0 | 10.0 | 0.00 | 0.00 | 0.00 | 68 | 1013.5 |
| 20260509162022 | 65 | 147 | 3.0 | 9.0 | 0.00 | 0.00 | 0.00 | 68 | 1013.4 |
| 20260509161021 | 65 | 135 | 1.0 | 13.0 | 0.00 | 0.00 | 0.00 | 69 | 1013.5 |
| 20260509160022 | 65 | 52 | 7.0 | 14.0 | 0.00 | 0.00 | 0.00 | 68 | 1013.4 |
| 20260509155022 | 62 | 153 | 3.0 | 9.0 | 0.00 | 0.00 | 0.00 | 74 | 1013.5 |
| 20260509154022 | 61 | 93 | 2.0 | 10.0 | 0.00 | 0.00 | 0.00 | 76 | 1013.5 |
| 20260509153023 | 59 | 109 | 5.0 | 10.0 | 0.00 | 0.00 | 0.00 | 77 | 1013.6 |
| 20260509152022 | 59 | 176 | 1.0 | 14.0 | 0.00 | 0.00 | 0.00 | 75 | 1013.9 |
| 20260509151021 | 59 | 154 | 2.0 | 8.0 | 0.00 | 0.00 | 0.00 | 75 | 1013.8 |
| 20260509150021 | 58 | 125 | 3.0 | 13.0 | 0.00 | 0.00 | 0.00 | 75 | 1013.9 |
| 20260509145022 | 57 | 67 | 5.0 | 13.0 | 0.00 | 0.00 | 0.00 | 76 | 1013.9 |
| 20260509144022 | 59 | 137 | 5.0 | 15.0 | 0.00 | 0.00 | 0.00 | 74 | 1013.7 |
| 20260509143022 | 56 | 62 | 8.0 | 15.0 | 0.00 | 0.00 | 0.00 | 75 | 1013.5 |
| 20260509142025 | 56 | 127 | 6.0 | 13.0 | 0.00 | 0.00 | 0.00 | 76 | 1013.6 |
| 20260509141022 | 55 | 103 | 5.0 | 13.0 | 0.00 | 0.00 | 0.00 | 78 | 1013.8 |
| 20260509140021 | 54 | 96 | 6.0 | 9.0 | 0.00 | 0.00 | 0.00 | 79 | 1014.1 |
| 20260509135022 | 54 | 85 | 5.0 | 13.0 | 0.00 | 0.00 | 0.00 | 79 | 1014.1 |
| 20260509134021 | 54 | 105 | 4.0 | 10.0 | 0.00 | 0.00 | 0.00 | 77 | 1014.1 |
| 20260509133022 | 53 | 90 | 5.0 | 12.0 | 0.00 | 0.00 | 0.00 | 77 | 1014.1 |
| 20260509132024 | 54 | 94 | 3.0 | 11.0 | 0.00 | 0.00 | 0.00 | 77 | 1014.1 |
| 20260509131022 | 53 | 81 | 7.0 | 13.0 | 0.00 | 0.00 | 0.00 | 75 | 1014.2 |
| 20260509130021 | 53 | 120 | 6.0 | 13.0 | 0.00 | 0.00 | 0.00 | 75 | 1014.3 |
| 20260509125022 | 53 | 76 | 5.0 | 9.0 | 0.00 | 0.00 | 0.00 | 74 | 1014.3 |
| 20260509124022 | 54 | 82 | 4.0 | 10.0 | 0.00 | 0.00 | 0.00 | 71 | 1014.4 |
| 20260509123021 | 55 | 61 | 2.0 | 8.0 | 0.00 | 0.00 | 0.00 | 69 | 1014.3 |
| 20260509122022 | 53 | 74 | 3.0 | 7.0 | 0.00 | 0.00 | 0.00 | 71 | 1014.3 |
| 20260509121021 | 54 | 78 | 4.0 | 8.0 | 0.00 | 0.00 | 0.00 | 69 | 1014.2 |
| 20260509120022 | 55 | 138 | 4.0 | 7.0 | 0.00 | 0.00 | 0.00 | 67 | 1014.2 |
| 20260509115023 | 55 | 80 | 4.0 | 7.0 | 0.00 | 0.00 | 0.00 | 67 | 1014.3 |
| 20260509114022 | 55 | 104 | 4.0 | 12.0 | 0.00 | 0.00 | 0.00 | 66 | 1014.2 |
| 20260509113022 | 54 | 62 | 5.0 | 10.0 | 0.00 | 0.00 | 0.00 | 66 | 1014.3 |
| 20260509112021 | 56 | 91 | 2.0 | 7.0 | 0.00 | 0.00 | 0.00 | 65 | 1014.2 |
| 20260509111022 | 55 | 74 | 3.0 | 8.0 | 0.00 | 0.00 | 0.00 | 66 | 1014.2 |
| 20260509110021 | 54 | 71 | 4.0 | 8.0 | 0.00 | 0.00 | 0.00 | 64 | 1014.3 |
| 20260509105022 | 54 | 110 | 3.0 | 8.0 | 0.00 | 0.00 | 0.00 | 65 | 1014.2 |
| 20260509104021 | 53 | 93 | 2.0 | 7.0 | 0.00 | 0.00 | 0.00 | 65 | 1014.2 |
| 20260509103022 | 53 | 110 | 6.0 | 10.0 | 0.00 | 0.00 | 0.00 | 65 | 1014.2 |
| 20260509102024 | 53 | 74 | 4.0 | 8.0 | 0.00 | 0.00 | 0.00 | 64 | 1014.2 |
| 20260509101021 | 53 | 65 | 4.0 | 7.0 | 0.00 | 0.00 | 0.00 | 64 | 1014.1 |
| 20260509100022 | 53 | 75 | 5.0 | 9.0 | 0.00 | 0.00 | 0.00 | 65 | 1014.1 |
| 20260509095021 | 51 | 67 | 4.0 | 9.0 | 0.00 | 0.00 | 0.00 | 66 | 1014.0 |
| 20260509094022 | 51 | 86 | 4.0 | 10.0 | 0.00 | 0.00 | 0.00 | 67 | 1014.0 |
| 20260509093023 | 53 | 103 | 5.0 | 9.0 | 0.00 | 0.00 | 0.00 | 63 | 1014.1 |
| 20260509092022 | 54 | 70 | 5.0 | 7.0 | 0.00 | 0.00 | 0.00 | 62 | 1014.2 |
| 20260509091021 | 53 | 72 | 4.0 | 8.0 | 0.00 | 0.00 | 0.00 | 63 | 1014.3 |
| 20260509090022 | 53 | 64 | 6.0 | 9.0 | 0.00 | 0.00 | 0.00 | 62 | 1014.3 |
| 20260509085021 | 55 | 74 | 5.0 | 8.0 | 0.00 | 0.00 | 0.00 | 59 | 1014.5 |
| 20260509084022 | 56 | 92 | 4.0 | 6.0 | 0.00 | 0.00 | 0.00 | 57 | 1014.4 |
| 20260509083021 | 56 | 100 | 2.0 | 6.0 | 0.00 | 0.00 | 0.00 | 57 | 1014.6 |
| 20260509082022 | 56 | 68 | 4.0 | 6.0 | 0.00 | 0.00 | 0.00 | 56 | 1014.6 |
| 20260509081024 | 56 | 70 | 4.0 | 7.0 | 0.00 | 0.00 | 0.00 | 56 | 1014.7 |
| 20260509080021 | 56 | 56 | 3.0 | 6.0 | 0.00 | 0.00 | 0.00 | 55 | 1014.8 |
| 20260509075022 | 57 | 350 | 2.0 | 4.0 | 0.00 | 0.00 | 0.00 | 54 | 1014.8 |
| 20260509074021 | 57 | 353 | 1.0 | 6.0 | 0.00 | 0.00 | 0.00 | 54 | 1014.8 |
| 20260509073022 | 57 | 20 | 2.0 | 4.0 | 0.00 | 0.00 | 0.00 | 53 | 1014.7 |
| 20260509072021 | 57 | 51 | 2.0 | 5.0 | 0.00 | 0.00 | 0.00 | 53 | 1014.7 |
| 20260509071021 | 57 | 3 | 2.0 | 7.0 | 0.00 | 0.00 | 0.00 | 53 | 1014.9 |
| 20260509070022 | 58 | 280 | 2.0 | 7.0 | 0.00 | 0.00 | 0.00 | 52 | 1015.2 |